Terminal Aerodrome Forecast
Issued by NWS Austin/San Antonio, TX

Home | Current Version | Previous Version | Text Only | Print | Product List | Glossary On
Versions: 1 2 3 4 5 6 7 8 9 10 11 12 13 14 15 16 17 18 19 20 21 22
000
FTUS44 KEWX 111100
TAFAUS
TAF
KAUS 111138Z 1112/1218 VRB03KT P6SM SCT110 SCT200
     FM111500 18009KT P6SM SCT030 BKN070
     FM111800 18010G20KT P6SM SCT050 BKN150
     FM120200 18007KT P6SM SCT150
     FM120900 VRB03KT 5SM BR SCT010
     FM121500 16009KT P6SM SCT030=

USA.gov is the U.S. government's official web portal to all federal, state and local government web resources and services.